createdAt,value
2023-05-23T00:01:48.164Z,7.67
2023-05-23T00:04:20.261Z,8.03
2023-05-23T00:06:51.696Z,8.17
2023-05-23T00:09:23.144Z,7.27
2023-05-23T00:11:54.527Z,6.93
2023-05-23T00:14:26.951Z,7.87
2023-05-23T00:16:59.523Z,7.13
2023-05-23T00:19:31.004Z,9.33
2023-05-23T00:22:03.286Z,9.13
2023-05-23T00:24:34.637Z,9.47
2023-05-23T00:27:05.934Z,9.97
2023-05-23T00:29:37.313Z,11.30
2023-05-23T00:32:08.623Z,14.97
2023-05-23T00:34:39.967Z,17.03
2023-05-23T00:37:11.719Z,20.57
2023-05-23T00:39:43.058Z,20.57
2023-05-23T00:42:14.384Z,21.43
2023-05-23T00:44:45.856Z,21.13
2023-05-23T00:47:17.811Z,20.47
2023-05-23T00:49:49.177Z,20.80
2023-05-23T00:52:20.690Z,20.87
2023-05-23T00:54:52.093Z,20.83
2023-05-23T00:57:23.418Z,18.33
2023-05-23T00:59:55.016Z,20.40
2023-05-23T01:02:27.795Z,18.70
2023-05-23T01:04:59.800Z,18.40
2023-05-23T01:07:31.121Z,18.47
2023-05-23T01:10:04.591Z,17.80
2023-05-23T01:12:54.341Z,17.80
2023-05-23T01:15:36.063Z,17.90
2023-05-23T01:18:14.357Z,15.50
2023-05-23T01:20:59.633Z,16.10
2023-05-23T01:24:03.314Z,18.00
2023-05-23T01:27:01.084Z,17.00
2023-05-23T01:29:36.574Z,16.47
2023-05-23T01:32:11.607Z,18.02
2023-05-23T01:34:43.811Z,17.02
2023-05-23T01:37:18.540Z,19.07
2023-05-23T01:39:50.066Z,20.33
2023-05-23T01:42:21.533Z,20.43
2023-05-23T01:44:52.975Z,22.27
2023-05-23T01:47:24.531Z,22.17
2023-05-23T01:49:57.644Z,21.80
2023-05-23T01:52:29.066Z,20.20
2023-05-23T01:55:01.817Z,20.60
2023-05-23T01:57:34.303Z,19.97
2023-05-23T02:00:06.854Z,20.80
2023-05-23T02:02:38.442Z,20.00
2023-05-23T02:05:11.046Z,21.07
2023-05-23T02:07:42.396Z,20.90
2023-05-23T02:10:14.038Z,20.07
2023-05-23T02:12:47.839Z,20.27
2023-05-23T02:15:19.213Z,20.17
2023-05-23T02:17:51.457Z,20.43
2023-05-23T02:20:22.927Z,19.03
2023-05-23T02:22:54.243Z,20.30
2023-05-23T02:25:25.550Z,19.77
2023-05-23T02:27:56.873Z,20.17
2023-05-23T02:30:28.280Z,20.50
2023-05-23T02:32:59.662Z,19.63
2023-05-23T02:35:30.994Z,19.40
2023-05-23T02:38:02.340Z,18.83
2023-05-23T02:40:33.703Z,18.10
2023-05-23T02:43:05.040Z,17.67
2023-05-23T02:45:36.334Z,17.97
2023-05-23T02:48:07.836Z,18.40
2023-05-23T02:50:39.290Z,18.27
2023-05-23T02:53:10.699Z,16.57
2023-05-23T02:55:43.222Z,15.80
2023-05-23T02:58:14.944Z,16.83
2023-05-23T03:00:46.362Z,14.63
2023-05-23T03:03:18.406Z,15.53
2023-05-23T03:05:49.939Z,15.93
2023-05-23T03:08:21.284Z,14.83
2023-05-23T03:10:52.741Z,14.93
2023-05-23T03:13:24.342Z,14.50
2023-05-23T03:15:55.935Z,14.27
2023-05-23T03:18:27.409Z,13.80
2023-05-23T03:20:58.841Z,12.80
2023-05-23T03:23:30.280Z,12.73
2023-05-23T03:26:02.009Z,12.67
2023-05-23T03:28:33.517Z,12.63
2023-05-23T03:31:05.327Z,12.97
2023-05-23T03:33:39.705Z,11.77
2023-05-23T03:36:11.929Z,11.63
2023-05-23T03:38:43.441Z,12.80
2023-05-23T03:41:14.874Z,12.47
2023-05-23T03:43:46.526Z,11.73
2023-05-23T03:46:18.912Z,11.10
2023-05-23T03:48:51.409Z,13.03
2023-05-23T03:51:24.208Z,13.30
2023-05-23T03:53:55.668Z,11.53
2023-05-23T03:56:27.241Z,13.13
2023-05-23T03:58:58.673Z,11.20
2023-05-23T04:01:30.166Z,12.07
2023-05-23T04:04:02.134Z,10.47
2023-05-23T04:06:33.975Z,11.20
2023-05-23T04:09:06.525Z,10.77
2023-05-23T04:11:37.981Z,11.07
2023-05-23T04:14:09.548Z,10.37
2023-05-23T04:16:44.932Z,11.73
2023-05-23T04:19:17.375Z,10.80
2023-05-23T04:21:48.829Z,10.03
2023-05-23T04:24:20.221Z,10.93
2023-05-23T04:26:51.652Z,11.50
2023-05-23T04:29:24.781Z,11.60
2023-05-23T04:31:56.184Z,11.57
2023-05-23T04:34:27.870Z,11.27
2023-05-23T04:37:02.544Z,11.33
2023-05-23T04:39:33.882Z,11.20
2023-05-23T04:42:07.300Z,11.80
2023-05-23T04:44:38.683Z,11.07
2023-05-23T04:47:11.559Z,12.03
2023-05-23T04:49:43.078Z,11.80
2023-05-23T04:52:14.546Z,12.17
2023-05-23T04:54:46.606Z,11.43
2023-05-23T04:57:18.253Z,12.43
2023-05-23T04:59:49.597Z,12.57
2023-05-23T05:02:21.036Z,12.60
2023-05-23T05:04:52.549Z,12.40
2023-05-23T05:07:24.027Z,12.50
2023-05-23T05:09:55.423Z,12.30
2023-05-23T05:12:26.818Z,13.30
2023-05-23T05:14:58.314Z,13.97
2023-05-23T05:17:30.257Z,14.60
2023-05-23T05:20:01.619Z,15.73
2023-05-23T05:22:33.602Z,15.60
2023-05-23T05:25:07.515Z,15.77
2023-05-23T05:27:39.707Z,15.13
2023-05-23T05:30:11.839Z,15.93
2023-05-23T05:32:46.111Z,15.53
2023-05-23T05:35:18.605Z,15.00
2023-05-23T05:37:49.996Z,14.27
2023-05-23T05:40:21.487Z,15.80
2023-05-23T05:42:52.927Z,15.73
2023-05-23T05:45:24.448Z,16.43
2023-05-23T05:47:56.060Z,15.20
2023-05-23T05:50:27.653Z,15.70
2023-05-23T05:52:58.997Z,15.53
2023-05-23T05:55:30.508Z,15.27
2023-05-23T05:58:02.115Z,16.10
2023-05-23T06:00:34.860Z,16.10
2023-05-23T06:03:06.554Z,15.20
2023-05-23T06:05:39.397Z,14.00
2023-05-23T06:08:10.844Z,15.83
2023-05-23T06:10:42.446Z,14.67
2023-05-23T06:13:14.222Z,15.53
2023-05-23T06:15:45.574Z,16.23
2023-05-23T06:18:17.127Z,15.40
2023-05-23T06:20:48.537Z,15.37
2023-05-23T06:23:19.970Z,15.83
2023-05-23T06:25:51.383Z,14.43
2023-05-23T06:28:22.785Z,16.00
2023-05-23T06:30:54.195Z,16.03
2023-05-23T06:33:25.598Z,16.03
2023-05-23T06:35:57.404Z,14.70
2023-05-23T06:38:33.627Z,13.03
2023-05-23T06:41:07.082Z,13.70
2023-05-23T06:43:38.585Z,14.03
2023-05-23T06:46:10.063Z,11.30
2023-05-23T06:48:41.849Z,10.77
2023-05-23T06:51:13.252Z,10.70
2023-05-23T06:53:44.904Z,9.43
2023-05-23T06:56:16.351Z,9.73
2023-05-23T06:58:47.722Z,9.77
2023-05-23T07:01:19.250Z,9.50
2023-05-23T07:03:50.728Z,11.93
2023-05-23T07:06:22.192Z,16.53
2023-05-23T07:08:54.083Z,15.97
2023-05-23T07:11:26.361Z,16.40
2023-05-23T07:13:57.717Z,15.53
2023-05-23T07:16:29.155Z,15.10
2023-05-23T07:21:33.518Z,13.93
2023-05-23T07:24:05.974Z,14.50
2023-05-23T07:26:37.651Z,15.07
2023-05-23T07:29:08.989Z,15.30
2023-05-23T07:31:40.581Z,13.63
2023-05-23T07:34:12.078Z,14.77
2023-05-23T07:36:43.473Z,14.37
2023-05-23T07:39:15.521Z,12.43
2023-05-23T07:41:46.948Z,13.87
2023-05-23T07:44:20.222Z,12.30
2023-05-23T07:46:53.107Z,11.43
2023-05-23T07:49:24.720Z,12.50
2023-05-23T07:51:56.501Z,12.40
2023-05-23T07:54:27.914Z,12.27
2023-05-23T07:56:59.291Z,10.93
2023-05-23T07:59:30.687Z,10.33
2023-05-23T08:02:02.730Z,10.30
2023-05-23T08:04:34.186Z,10.50
2023-05-23T08:07:06.300Z,11.53
2023-05-23T08:09:41.394Z,10.57
2023-05-23T08:12:12.773Z,9.47
2023-05-23T08:14:51.478Z,9.10
2023-05-23T08:17:23.963Z,8.73
2023-05-23T08:19:55.435Z,6.63
2023-05-23T08:22:26.759Z,6.63
2023-05-23T08:24:58.111Z,5.83
2023-05-23T08:27:30.271Z,4.87
2023-05-23T08:30:03.226Z,3.63
2023-05-23T08:32:34.630Z,3.63
2023-05-23T08:35:06.621Z,3.73
2023-05-23T08:37:38.007Z,3.83
2023-05-23T08:40:14.361Z,4.00
2023-05-23T08:42:46.842Z,5.17
2023-05-23T08:45:18.710Z,3.80
2023-05-23T08:47:52.218Z,4.20
2023-05-23T08:50:27.287Z,3.80
2023-05-23T08:52:59.747Z,4.73
2023-05-23T08:55:31.493Z,4.67
2023-05-23T08:58:03.640Z,5.17
2023-05-23T09:00:35.525Z,5.03
2023-05-23T09:03:07.213Z,5.27
2023-05-23T09:05:38.709Z,5.03
2023-05-23T09:08:10.612Z,4.90
2023-05-23T09:10:42.773Z,4.63
2023-05-23T09:13:15.311Z,4.27
2023-05-23T09:15:57.776Z,4.20
2023-05-23T09:18:42.840Z,4.13
2023-05-23T09:21:14.430Z,3.43
2023-05-23T09:23:45.836Z,3.27
2023-05-23T09:26:17.375Z,3.83
2023-05-23T09:28:48.942Z,3.13
2023-05-23T09:31:26.656Z,3.43
2023-05-23T09:34:00.028Z,3.50
2023-05-23T09:36:33.630Z,3.23
2023-05-23T09:39:05.650Z,2.47
2023-05-23T09:41:37.144Z,2.20
2023-05-23T09:44:09.381Z,3.73
2023-05-23T09:46:41.093Z,3.30
2023-05-23T09:49:18.522Z,2.50
2023-05-23T09:52:01.186Z,2.90
2023-05-23T09:54:32.572Z,2.30
2023-05-23T09:57:08.244Z,3.00
2023-05-23T09:59:42.278Z,2.30
2023-05-23T10:02:16.730Z,2.37
2023-05-23T10:04:51.115Z,3.10
2023-05-23T10:07:24.990Z,3.43
2023-05-23T10:10:04.089Z,2.27
2023-05-23T10:12:50.036Z,2.83
2023-05-23T10:15:23.905Z,3.58
2023-05-23T10:18:04.324Z,2.17
2023-05-23T10:20:36.448Z,2.23
2023-05-23T10:23:07.940Z,2.40
2023-05-23T10:25:41.396Z,2.80
2023-05-23T10:28:13.865Z,2.63
2023-05-23T10:30:46.117Z,2.50
2023-05-23T10:33:19.243Z,2.57
2023-05-23T10:36:04.197Z,2.57
2023-05-23T10:38:45.970Z,2.43
2023-05-23T10:41:24.505Z,2.30
2023-05-23T10:44:08.318Z,2.57
2023-05-23T10:46:54.403Z,2.10
2023-05-23T10:49:42.346Z,2.30
2023-05-23T10:52:16.305Z,2.63
2023-05-23T10:54:51.182Z,2.40
2023-05-23T10:57:27.785Z,3.20
2023-05-23T10:59:59.409Z,2.87
2023-05-23T11:02:31.117Z,3.10
2023-05-23T11:05:22.730Z,3.03
2023-05-23T11:08:11.942Z,2.83
2023-05-23T11:11:00.890Z,2.20
2023-05-23T11:14:07.732Z,2.30
2023-05-23T11:16:43.675Z,3.40
2023-05-23T11:19:21.707Z,2.53
2023-05-23T11:22:02.522Z,2.00
2023-05-23T11:24:54.106Z,3.30
2023-05-23T11:27:35.722Z,2.50
2023-05-23T11:30:13.430Z,2.23
2023-05-23T11:32:53.283Z,2.10
2023-05-23T11:35:24.913Z,2.13
2023-05-23T11:37:57.553Z,2.20
2023-05-23T11:40:30.613Z,1.87
2023-05-23T11:43:09.861Z,2.00
2023-05-23T11:45:41.800Z,2.30
2023-05-23T11:48:16.328Z,2.00
2023-05-23T11:50:53.562Z,2.10
2023-05-23T11:53:27.740Z,2.63
2023-05-23T11:56:01.710Z,1.93
2023-05-23T11:58:38.412Z,2.00
2023-05-23T12:01:11.818Z,2.60
2023-05-23T12:03:50.940Z,3.00
2023-05-23T12:06:24.679Z,2.43
2023-05-23T12:08:56.189Z,2.33
2023-05-23T12:11:31.816Z,3.13
2023-05-23T12:14:06.422Z,3.38
2023-05-23T12:16:38.090Z,2.17
2023-05-23T12:19:11.832Z,2.10
2023-05-23T12:21:45.745Z,2.33
2023-05-23T12:24:19.861Z,2.83
2023-05-23T12:26:51.282Z,2.90
2023-05-23T12:29:28.781Z,2.53
2023-05-23T12:32:02.007Z,2.97
2023-05-23T12:34:33.356Z,2.87
2023-05-23T12:37:18.925Z,2.33
2023-05-23T12:39:50.889Z,2.40
2023-05-23T12:42:22.345Z,2.17
2023-05-23T12:44:53.982Z,2.23
2023-05-23T12:47:25.518Z,2.33
2023-05-23T12:49:57.039Z,2.67
2023-05-23T12:52:28.394Z,2.43
2023-05-23T12:54:59.800Z,3.10
2023-05-23T12:57:31.955Z,2.80
2023-05-23T13:00:04.652Z,2.57
2023-05-23T13:02:36.110Z,2.90
2023-05-23T13:05:08.228Z,2.23
2023-05-23T13:07:39.640Z,3.77
2023-05-23T13:10:11.162Z,3.10
2023-05-23T13:12:42.542Z,3.53
2023-05-23T13:15:13.984Z,3.43
2023-05-23T13:17:49.958Z,3.27
2023-05-23T13:20:22.233Z,3.00
2023-05-23T13:22:53.666Z,2.93
2023-05-23T13:25:26.224Z,2.17
2023-05-23T13:27:57.737Z,2.60
2023-05-23T13:30:29.241Z,3.10
2023-05-23T13:33:00.735Z,2.30
2023-05-23T13:35:32.142Z,3.10
2023-05-23T13:38:03.601Z,2.83
2023-05-23T13:40:35.337Z,2.53
2023-05-23T13:43:07.338Z,2.50
2023-05-23T13:45:38.800Z,3.27
2023-05-23T13:48:10.516Z,2.30
2023-05-23T13:50:43.286Z,3.00
2023-05-23T13:53:16.780Z,2.80
2023-05-23T13:55:48.264Z,2.47
2023-05-23T13:58:19.701Z,3.10
2023-05-23T14:00:51.055Z,2.87
2023-05-23T14:03:22.534Z,2.83
2023-05-23T14:05:54.113Z,2.67
2023-05-23T14:08:25.842Z,2.73
2023-05-23T14:10:57.307Z,3.50
2023-05-23T14:13:28.707Z,2.80
2023-05-23T14:16:00.137Z,3.07
2023-05-23T14:18:32.592Z,3.03
2023-05-23T14:21:04.180Z,2.20
2023-05-23T14:23:35.627Z,2.23
2023-05-23T14:26:07.251Z,2.30
2023-05-23T14:28:38.672Z,3.10
2023-05-23T14:31:10.112Z,2.53
2023-05-23T14:33:41.500Z,2.40
2023-05-23T14:36:12.913Z,2.60
2023-05-23T14:38:46.151Z,2.80
2023-05-23T14:41:17.572Z,2.80
2023-05-23T14:43:49.074Z,2.97
2023-05-23T14:46:20.628Z,2.70
2023-05-23T14:48:52.038Z,2.90
2023-05-23T14:51:41.811Z,2.40
2023-05-23T14:54:15.917Z,2.70
2023-05-23T14:56:47.449Z,2.13
2023-05-23T14:59:18.965Z,2.30
2023-05-23T15:01:50.416Z,2.23
2023-05-23T15:04:21.866Z,2.23
2023-05-23T15:06:53.361Z,2.27
2023-05-23T15:09:24.772Z,2.07
2023-05-23T15:11:56.271Z,1.90
2023-05-23T15:14:29.708Z,2.77
2023-05-23T15:17:07.760Z,2.47
2023-05-23T15:19:42.770Z,2.13
2023-05-23T15:22:33.625Z,2.27
2023-05-23T15:25:06.782Z,2.80
2023-05-23T15:27:38.206Z,2.90
2023-05-23T15:30:09.914Z,2.53
2023-05-23T15:32:41.413Z,2.67
2023-05-23T15:35:12.810Z,1.83
2023-05-23T15:37:45.012Z,2.00
2023-05-23T15:40:16.424Z,2.27
2023-05-23T15:42:47.897Z,3.17
2023-05-23T15:45:19.289Z,2.73
2023-05-23T15:47:50.999Z,2.10
2023-05-23T15:50:22.538Z,2.37
2023-05-23T15:52:53.873Z,1.97
2023-05-23T15:55:25.318Z,2.40
2023-05-23T15:57:56.668Z,1.90
2023-05-23T16:00:28.126Z,3.50
2023-05-23T16:03:00.564Z,2.20
2023-05-23T16:05:32.065Z,2.23
2023-05-23T16:08:03.415Z,2.03
2023-05-23T16:10:34.905Z,2.33
2023-05-23T16:13:07.601Z,2.70
2023-05-23T16:15:39.215Z,2.30
2023-05-23T16:18:11.192Z,2.17
2023-05-23T16:20:42.565Z,2.80
2023-05-23T16:23:14.700Z,2.13
2023-05-23T16:25:46.320Z,2.83
2023-05-23T16:28:18.250Z,2.77
2023-05-23T16:30:50.522Z,2.70
2023-05-23T16:33:21.875Z,2.73
2023-05-23T16:35:53.296Z,2.07
2023-05-23T16:38:24.689Z,2.50
2023-05-23T16:40:56.076Z,1.97
2023-05-23T16:43:27.424Z,2.53
2023-05-23T16:45:58.970Z,2.70
2023-05-23T16:48:30.695Z,2.33
2023-05-23T16:51:02.098Z,3.40
2023-05-23T16:53:33.569Z,2.73
2023-05-23T16:56:05.139Z,1.63
2023-05-23T16:58:38.628Z,2.57
2023-05-23T17:01:10.083Z,2.10
2023-05-23T17:03:41.718Z,2.53
2023-05-23T17:06:13.350Z,2.53
2023-05-23T17:08:44.754Z,2.53
2023-05-23T17:11:16.271Z,3.13
2023-05-23T17:13:47.686Z,1.97
2023-05-23T17:16:20.591Z,2.70
2023-05-23T17:18:52.210Z,2.30
2023-05-23T17:21:23.553Z,2.10
2023-05-23T17:23:54.948Z,2.17
2023-05-23T17:26:27.161Z,2.57
2023-05-23T17:28:58.500Z,2.97
2023-05-23T17:31:30.799Z,2.50
2023-05-23T17:34:02.432Z,2.50
2023-05-23T17:36:35.028Z,2.43
2023-05-23T17:39:06.895Z,3.23
2023-05-23T17:41:38.268Z,2.20
2023-05-23T17:44:09.597Z,2.43
2023-05-23T17:46:41.008Z,1.83
2023-05-23T17:49:12.430Z,2.47
2023-05-23T17:51:43.917Z,1.40
2023-05-23T17:54:15.574Z,2.70
2023-05-23T17:56:47.700Z,1.73
2023-05-23T17:59:19.115Z,3.00
2023-05-23T18:01:50.579Z,1.70
2023-05-23T18:04:22.984Z,1.67
2023-05-23T18:06:54.410Z,2.27
2023-05-23T18:09:25.772Z,1.57
2023-05-23T18:11:57.345Z,2.50
2023-05-23T18:14:28.686Z,2.23
2023-05-23T18:17:00.045Z,2.47
2023-05-23T18:19:31.474Z,2.27
2023-05-23T18:22:03.037Z,2.40
2023-05-23T18:24:34.353Z,2.33
2023-05-23T18:27:06.009Z,2.37
2023-05-23T18:29:37.353Z,2.57
2023-05-23T18:32:08.907Z,3.53
2023-05-23T18:34:40.856Z,2.50
2023-05-23T18:37:12.685Z,1.70
2023-05-23T18:39:44.134Z,2.33
2023-05-23T18:42:15.616Z,2.67
2023-05-23T18:44:47.358Z,2.17
2023-05-23T18:47:18.730Z,2.63
2023-05-23T18:49:50.368Z,2.80
2023-05-23T18:52:21.983Z,3.10
2023-05-23T18:54:54.025Z,2.57
2023-05-23T18:57:26.057Z,3.03
2023-05-23T18:59:57.544Z,2.83
2023-05-23T19:02:28.996Z,2.20
2023-05-23T19:05:01.440Z,2.30
2023-05-23T19:07:32.825Z,2.43
2023-05-23T19:10:04.693Z,2.40
2023-05-23T19:12:36.282Z,2.57
2023-05-23T19:15:10.169Z,2.27
2023-05-23T19:17:41.669Z,2.70
2023-05-23T19:20:18.136Z,2.27
2023-05-23T19:22:52.151Z,2.87
2023-05-23T19:25:24.117Z,2.50
2023-05-23T19:27:55.581Z,2.93
2023-05-23T19:30:26.911Z,2.10
2023-05-23T19:33:01.247Z,2.60
2023-05-23T19:35:33.775Z,1.77
2023-05-23T19:38:05.263Z,2.93
2023-05-23T19:40:36.677Z,2.60
2023-05-23T19:43:08.392Z,2.03
2023-05-23T19:45:39.860Z,1.87
2023-05-23T19:48:11.206Z,2.47
2023-05-23T19:50:43.576Z,2.40
2023-05-23T19:53:15.638Z,3.33
2023-05-23T19:55:46.995Z,2.87
2023-05-23T19:58:18.515Z,2.60
2023-05-23T20:00:50.040Z,3.20
2023-05-23T20:03:22.492Z,1.70
2023-05-23T20:05:54.008Z,2.13
2023-05-23T20:08:26.082Z,2.30
2023-05-23T20:10:59.332Z,3.30
2023-05-23T20:13:30.740Z,2.53
2023-05-23T20:16:02.374Z,1.90
2023-05-23T20:18:34.330Z,2.30
2023-05-23T20:21:05.735Z,3.13
2023-05-23T20:23:37.380Z,2.67
2023-05-23T20:26:09.948Z,2.77
2023-05-23T20:28:41.378Z,3.63
2023-05-23T20:31:13.106Z,2.70
2023-05-23T20:33:44.550Z,2.50
2023-05-23T20:36:19.512Z,2.10
2023-05-23T20:38:52.521Z,2.50
2023-05-23T20:41:24.405Z,3.00
2023-05-23T20:43:55.721Z,1.93
2023-05-23T20:46:27.691Z,3.37
2023-05-23T20:48:59.337Z,2.53
2023-05-23T20:51:30.778Z,2.10
2023-05-23T20:54:03.201Z,2.40
2023-05-23T20:56:34.562Z,2.33
2023-05-23T20:59:05.954Z,5.20
2023-05-23T21:01:37.633Z,3.80
2023-05-23T21:04:09.031Z,3.90
2023-05-23T21:06:40.376Z,2.77
2023-05-23T21:09:13.566Z,3.17
2023-05-23T21:11:44.953Z,3.33
2023-05-23T21:14:16.268Z,2.97
2023-05-23T21:16:47.634Z,3.17
2023-05-23T21:19:18.999Z,3.13
2023-05-23T21:21:52.993Z,3.30
2023-05-23T21:24:25.295Z,3.57
2023-05-23T21:26:56.827Z,2.90
2023-05-23T21:29:28.571Z,3.37
2023-05-23T21:31:59.986Z,4.47
2023-05-23T21:34:31.411Z,3.83
2023-05-23T21:37:02.789Z,4.20
2023-05-23T21:39:47.090Z,3.50
2023-05-23T21:42:24.557Z,2.80
2023-05-23T21:44:55.872Z,3.10
2023-05-23T21:47:27.279Z,3.90
2023-05-23T21:49:58.660Z,3.83
2023-05-23T21:52:30.613Z,3.90
2023-05-23T21:55:01.957Z,4.20
2023-05-23T21:57:33.376Z,4.87
2023-05-23T22:00:05.368Z,3.60
2023-05-23T22:02:37.251Z,3.90
2023-05-23T22:05:08.900Z,3.13
2023-05-23T22:07:40.255Z,3.37
2023-05-23T22:10:11.753Z,4.60
2023-05-23T22:12:43.209Z,3.60
2023-05-23T22:15:14.619Z,3.37
2023-05-23T22:17:46.780Z,4.87
2023-05-23T22:20:18.304Z,3.73
2023-05-23T22:22:49.830Z,3.87
2023-05-23T22:25:22.898Z,3.70
2023-05-23T22:27:54.219Z,4.10
2023-05-23T22:30:25.642Z,4.30
2023-05-23T22:32:57.621Z,5.13
2023-05-23T22:35:29.115Z,4.10
2023-05-23T22:38:00.652Z,3.77
2023-05-23T22:40:32.238Z,3.40
2023-05-23T22:43:07.351Z,4.73
2023-05-23T22:45:42.481Z,4.00
2023-05-23T22:48:14.169Z,3.30
2023-05-23T22:50:45.730Z,3.93
2023-05-23T22:53:17.033Z,3.57
2023-05-23T22:55:49.582Z,4.90
2023-05-23T22:58:20.924Z,5.00
2023-05-23T23:00:52.305Z,3.97
2023-05-23T23:03:23.690Z,3.40
2023-05-23T23:05:55.282Z,3.73
2023-05-23T23:08:27.247Z,5.97
2023-05-23T23:10:58.648Z,4.43
2023-05-23T23:13:30.151Z,4.70
2023-05-23T23:16:01.482Z,4.57
2023-05-23T23:18:32.910Z,3.90
2023-05-23T23:21:04.267Z,3.30
2023-05-23T23:23:36.577Z,3.30
2023-05-23T23:26:07.978Z,3.97
2023-05-23T23:28:39.376Z,4.10
2023-05-23T23:31:10.852Z,4.30
2023-05-23T23:33:42.200Z,4.13
2023-05-23T23:36:13.826Z,2.83
2023-05-23T23:38:45.265Z,3.87
2023-05-23T23:41:16.584Z,3.60
2023-05-23T23:43:47.905Z,4.37
2023-05-23T23:46:20.743Z,4.37
2023-05-23T23:48:52.212Z,3.83
2023-05-23T23:51:23.533Z,5.37
2023-05-23T23:53:54.942Z,3.43
2023-05-23T23:56:26.460Z,3.67
2023-05-23T23:58:57.872Z,4.43
